sensor_id;sensor_type;location;lat;lon;timestamp;P1;durP1;ratioP1;P2;durP2;ratioP2
56373;SDS011;58212;47.034;7.376;2024-03-07T00:00:33;4.45;;;4.05;;
56373;SDS011;58212;47.034;7.376;2024-03-07T00:03:00;4.43;;;3.95;;
56373;SDS011;58212;47.034;7.376;2024-03-07T00:05:28;5.07;;;4.10;;
56373;SDS011;58212;47.034;7.376;2024-03-07T00:07:54;3.88;;;3.58;;
56373;SDS011;58212;47.034;7.376;2024-03-07T00:10:21;3.63;;;3.35;;
56373;SDS011;58212;47.034;7.376;2024-03-07T00:12:48;4.18;;;3.78;;
56373;SDS011;58212;47.034;7.376;2024-03-07T00:15:15;4.05;;;3.72;;
56373;SDS011;58212;47.034;7.376;2024-03-07T00:17:45;4.03;;;3.63;;
56373;SDS011;58212;47.034;7.376;2024-03-07T00:20:12;4.18;;;3.78;;
56373;SDS011;58212;47.034;7.376;2024-03-07T00:22:40;4.03;;;3.72;;
56373;SDS011;58212;47.034;7.376;2024-03-07T00:25:07;4.50;;;4.10;;
56373;SDS011;58212;47.034;7.376;2024-03-07T00:27:36;4.05;;;3.70;;
56373;SDS011;58212;47.034;7.376;2024-03-07T00:30:03;4.60;;;4.20;;
56373;SDS011;58212;47.034;7.376;2024-03-07T00:32:31;3.92;;;3.53;;
56373;SDS011;58212;47.034;7.376;2024-03-07T00:35:02;4.22;;;3.90;;
56373;SDS011;58212;47.034;7.376;2024-03-07T00:37:29;4.00;;;3.70;;
56373;SDS011;58212;47.034;7.376;2024-03-07T00:39:57;4.68;;;3.35;;
56373;SDS011;58212;47.034;7.376;2024-03-07T00:42:23;3.72;;;3.42;;
56373;SDS011;58212;47.034;7.376;2024-03-07T00:44:51;2.72;;;2.53;;
56373;SDS011;58212;47.034;7.376;2024-03-07T00:47:17;3.30;;;3.10;;
56373;SDS011;58212;47.034;7.376;2024-03-07T00:49:44;2.67;;;2.38;;
56373;SDS011;58212;47.034;7.376;2024-03-07T00:52:13;3.20;;;2.70;;
56373;SDS011;58212;47.034;7.376;2024-03-07T00:54:40;2.80;;;2.60;;
56373;SDS011;58212;47.034;7.376;2024-03-07T00:57:07;2.85;;;2.30;;
56373;SDS011;58212;47.034;7.376;2024-03-07T00:59:34;2.03;;;1.92;;
56373;SDS011;58212;47.034;7.376;2024-03-07T01:02:01;2.17;;;2.03;;
56373;SDS011;58212;47.034;7.376;2024-03-07T01:04:28;2.40;;;2.20;;
56373;SDS011;58212;47.034;7.376;2024-03-07T01:06:56;2.22;;;2.03;;
56373;SDS011;58212;47.034;7.376;2024-03-07T01:09:25;3.00;;;2.17;;
56373;SDS011;58212;47.034;7.376;2024-03-07T01:11:54;2.42;;;1.95;;
56373;SDS011;58212;47.034;7.376;2024-03-07T01:14:21;2.75;;;2.20;;
56373;SDS011;58212;47.034;7.376;2024-03-07T01:16:48;2.30;;;2.08;;
56373;SDS011;58212;47.034;7.376;2024-03-07T01:19:15;2.00;;;1.83;;
56373;SDS011;58212;47.034;7.376;2024-03-07T01:21:42;2.40;;;2.20;;
56373;SDS011;58212;47.034;7.376;2024-03-07T01:24:09;2.50;;;2.30;;
56373;SDS011;58212;47.034;7.376;2024-03-07T01:26:37;2.47;;;2.28;;
56373;SDS011;58212;47.034;7.376;2024-03-07T01:29:04;2.88;;;2.58;;
56373;SDS011;58212;47.034;7.376;2024-03-07T01:31:32;2.72;;;2.53;;
56373;SDS011;58212;47.034;7.376;2024-03-07T01:33:59;2.92;;;2.72;;
56373;SDS011;58212;47.034;7.376;2024-03-07T01:36:25;3.38;;;2.70;;
56373;SDS011;58212;47.034;7.376;2024-03-07T01:38:53;3.20;;;2.30;;
56373;SDS011;58212;47.034;7.376;2024-03-07T01:41:20;2.10;;;1.85;;
56373;SDS011;58212;47.034;7.376;2024-03-07T01:43:48;2.45;;;2.25;;
56373;SDS011;58212;47.034;7.376;2024-03-07T01:46:15;3.00;;;2.33;;
56373;SDS011;58212;47.034;7.376;2024-03-07T01:48:42;2.60;;;2.40;;
56373;SDS011;58212;47.034;7.376;2024-03-07T01:51:09;2.70;;;2.50;;
56373;SDS011;58212;47.034;7.376;2024-03-07T01:53:36;3.03;;;2.78;;
56373;SDS011;58212;47.034;7.376;2024-03-07T01:56:03;3.47;;;2.80;;
56373;SDS011;58212;47.034;7.376;2024-03-07T01:58:31;3.13;;;2.83;;
56373;SDS011;58212;47.034;7.376;2024-03-07T02:00:59;3.28;;;3.08;;
56373;SDS011;58212;47.034;7.376;2024-03-07T02:03:27;5.30;;;2.95;;
56373;SDS011;58212;47.034;7.376;2024-03-07T02:05:54;2.90;;;2.70;;
56373;SDS011;58212;47.034;7.376;2024-03-07T02:08:20;3.63;;;2.75;;
56373;SDS011;58212;47.034;7.376;2024-03-07T02:10:47;2.90;;;2.70;;
56373;SDS011;58212;47.034;7.376;2024-03-07T02:13:15;3.22;;;2.92;;
56373;SDS011;58212;47.034;7.376;2024-03-07T02:15:42;3.60;;;3.30;;
56373;SDS011;58212;47.034;7.376;2024-03-07T02:18:10;4.00;;;3.67;;
56373;SDS011;58212;47.034;7.376;2024-03-07T02:20:37;4.32;;;3.92;;
56373;SDS011;58212;47.034;7.376;2024-03-07T02:23:05;3.78;;;3.47;;
56373;SDS011;58212;47.034;7.376;2024-03-07T02:25:32;3.78;;;3.47;;
56373;SDS011;58212;47.034;7.376;2024-03-07T02:28:03;3.70;;;3.40;;
56373;SDS011;58212;47.034;7.376;2024-03-07T02:30:30;5.38;;;3.88;;
56373;SDS011;58212;47.034;7.376;2024-03-07T02:32:58;4.00;;;3.70;;
56373;SDS011;58212;47.034;7.376;2024-03-07T02:35:31;3.80;;;3.50;;
56373;SDS011;58212;47.034;7.376;2024-03-07T02:37:59;3.22;;;2.92;;
56373;SDS011;58212;47.034;7.376;2024-03-07T02:40:28;3.65;;;3.35;;
56373;SDS011;58212;47.034;7.376;2024-03-07T02:42:56;3.70;;;3.40;;
56373;SDS011;58212;47.034;7.376;2024-03-07T02:45:23;4.03;;;3.72;;
56373;SDS011;58212;47.034;7.376;2024-03-07T02:47:50;4.03;;;3.63;;
56373;SDS011;58212;47.034;7.376;2024-03-07T02:50:18;4.05;;;3.75;;
56373;SDS011;58212;47.034;7.376;2024-03-07T02:52:47;4.53;;;4.13;;
56373;SDS011;58212;47.034;7.376;2024-03-07T02:55:14;4.63;;;4.22;;
56373;SDS011;58212;47.034;7.376;2024-03-07T02:57:42;4.88;;;4.47;;
56373;SDS011;58212;47.034;7.376;2024-03-07T03:00:10;5.40;;;4.95;;
56373;SDS011;58212;47.034;7.376;2024-03-07T03:02:45;4.82;;;4.43;;
56373;SDS011;58212;47.034;7.376;2024-03-07T03:05:13;5.10;;;4.70;;
56373;SDS011;58212;47.034;7.376;2024-03-07T03:07:41;5.55;;;5.05;;
56373;SDS011;58212;47.034;7.376;2024-03-07T03:10:08;5.43;;;4.78;;
56373;SDS011;58212;47.034;7.376;2024-03-07T03:12:36;5.32;;;4.90;;
56373;SDS011;58212;47.034;7.376;2024-03-07T03:15:06;5.30;;;4.80;;
56373;SDS011;58212;47.034;7.376;2024-03-07T03:17:35;5.93;;;5.43;;
56373;SDS011;58212;47.034;7.376;2024-03-07T03:20:01;5.88;;;5.38;;
56373;SDS011;58212;47.034;7.376;2024-03-07T03:22:30;5.88;;;5.38;;
56373;SDS011;58212;47.034;7.376;2024-03-07T03:24:57;6.10;;;5.50;;
56373;SDS011;58212;47.034;7.376;2024-03-07T03:27:23;6.00;;;5.50;;
56373;SDS011;58212;47.034;7.376;2024-03-07T03:29:50;6.90;;;5.68;;
56373;SDS011;58212;47.034;7.376;2024-03-07T03:32:18;6.70;;;6.10;;
56373;SDS011;58212;47.034;7.376;2024-03-07T03:34:45;6.95;;;6.25;;
56373;SDS011;58212;47.034;7.376;2024-03-07T03:37:12;6.95;;;6.28;;
56373;SDS011;58212;47.034;7.376;2024-03-07T03:39:39;6.50;;;5.90;;
56373;SDS011;58212;47.034;7.376;2024-03-07T03:42:13;8.00;;;6.10;;
56373;SDS011;58212;47.034;7.376;2024-03-07T03:44:40;8.38;;;6.75;;
56373;SDS011;58212;47.034;7.376;2024-03-07T03:47:07;6.47;;;5.88;;
56373;SDS011;58212;47.034;7.376;2024-03-07T03:49:35;6.72;;;6.05;;
56373;SDS011;58212;47.034;7.376;2024-03-07T03:52:02;7.25;;;6.30;;
56373;SDS011;58212;47.034;7.376;2024-03-07T03:54:29;7.30;;;5.55;;
56373;SDS011;58212;47.034;7.376;2024-03-07T03:56:56;8.23;;;6.43;;
56373;SDS011;58212;47.034;7.376;2024-03-07T03:59:24;7.00;;;6.28;;
56373;SDS011;58212;47.034;7.376;2024-03-07T04:01:51;7.07;;;6.38;;
56373;SDS011;58212;47.034;7.376;2024-03-07T04:04:17;7.63;;;6.70;;
56373;SDS011;58212;47.034;7.376;2024-03-07T04:06:46;7.68;;;6.88;;
56373;SDS011;58212;47.034;7.376;2024-03-07T04:09:13;8.65;;;6.70;;
56373;SDS011;58212;47.034;7.376;2024-03-07T04:11:41;7.90;;;7.10;;
56373;SDS011;58212;47.034;7.376;2024-03-07T04:14:08;7.65;;;6.95;;
56373;SDS011;58212;47.034;7.376;2024-03-07T04:16:35;8.25;;;7.45;;
56373;SDS011;58212;47.034;7.376;2024-03-07T04:19:04;9.13;;;7.38;;
56373;SDS011;58212;47.034;7.376;2024-03-07T04:21:34;7.93;;;7.13;;
56373;SDS011;58212;47.034;7.376;2024-03-07T04:24:03;8.93;;;8.02;;
56373;SDS011;58212;47.034;7.376;2024-03-07T04:26:30;8.75;;;7.85;;
56373;SDS011;58212;47.034;7.376;2024-03-07T04:28:57;9.00;;;8.10;;
56373;SDS011;58212;47.034;7.376;2024-03-07T04:31:24;8.60;;;7.70;;
56373;SDS011;58212;47.034;7.376;2024-03-07T04:33:51;8.43;;;7.63;;
56373;SDS011;58212;47.034;7.376;2024-03-07T04:36:18;9.38;;;7.78;;
56373;SDS011;58212;47.034;7.376;2024-03-07T04:38:45;8.50;;;7.15;;
56373;SDS011;58212;47.034;7.376;2024-03-07T04:41:13;8.57;;;7.78;;
56373;SDS011;58212;47.034;7.376;2024-03-07T04:43:41;8.98;;;7.07;;
56373;SDS011;58212;47.034;7.376;2024-03-07T04:46:08;8.15;;;7.35;;
56373;SDS011;58212;47.034;7.376;2024-03-07T04:48:35;9.27;;;7.15;;
56373;SDS011;58212;47.034;7.376;2024-03-07T04:51:02;7.60;;;6.90;;
56373;SDS011;58212;47.034;7.376;2024-03-07T04:53:29;8.50;;;7.65;;
56373;SDS011;58212;47.034;7.376;2024-03-07T04:55:57;8.95;;;8.02;;
56373;SDS011;58212;47.034;7.376;2024-03-07T04:58:25;9.07;;;8.18;;
56373;SDS011;58212;47.034;7.376;2024-03-07T05:00:51;9.10;;;8.15;;
56373;SDS011;58212;47.034;7.376;2024-03-07T05:03:18;10.25;;;8.50;;
56373;SDS011;58212;47.034;7.376;2024-03-07T05:05:45;9.20;;;8.32;;
56373;SDS011;58212;47.034;7.376;2024-03-07T05:08:12;9.63;;;8.38;;
56373;SDS011;58212;47.034;7.376;2024-03-07T05:10:39;9.30;;;8.30;;
56373;SDS011;58212;47.034;7.376;2024-03-07T05:13:06;10.25;;;9.15;;
56373;SDS011;58212;47.034;7.376;2024-03-07T05:15:34;9.77;;;8.82;;
56373;SDS011;58212;47.034;7.376;2024-03-07T05:18:01;11.52;;;8.98;;
56373;SDS011;58212;47.034;7.376;2024-03-07T05:20:28;20.15;;;15.43;;
56373;SDS011;58212;47.034;7.376;2024-03-07T05:22:55;12.63;;;10.60;;
56373;SDS011;58212;47.034;7.376;2024-03-07T05:25:24;9.65;;;8.68;;
56373;SDS011;58212;47.034;7.376;2024-03-07T05:27:51;12.15;;;8.95;;
56373;SDS011;58212;47.034;7.376;2024-03-07T05:30:18;9.63;;;8.52;;
56373;SDS011;58212;47.034;7.376;2024-03-07T05:32:49;11.25;;;9.45;;
56373;SDS011;58212;47.034;7.376;2024-03-07T05:35:16;9.77;;;8.77;;
56373;SDS011;58212;47.034;7.376;2024-03-07T05:37:43;8.98;;;8.07;;
56373;SDS011;58212;47.034;7.376;2024-03-07T05:40:12;10.63;;;9.00;;
56373;SDS011;58212;47.034;7.376;2024-03-07T05:42:39;12.20;;;9.82;;
56373;SDS011;58212;47.034;7.376;2024-03-07T05:45:06;9.57;;;8.40;;
56373;SDS011;58212;47.034;7.376;2024-03-07T05:47:33;10.77;;;9.15;;
56373;SDS011;58212;47.034;7.376;2024-03-07T05:50:01;11.25;;;9.65;;
56373;SDS011;58212;47.034;7.376;2024-03-07T05:52:28;11.52;;;9.82;;
56373;SDS011;58212;47.034;7.376;2024-03-07T05:54:55;10.90;;;9.63;;
56373;SDS011;58212;47.034;7.376;2024-03-07T05:57:23;11.38;;;10.18;;
56373;SDS011;58212;47.034;7.376;2024-03-07T05:59:50;11.30;;;8.82;;
56373;SDS011;58212;47.034;7.376;2024-03-07T06:02:17;10.68;;;9.38;;
56373;SDS011;58212;47.034;7.376;2024-03-07T06:04:45;12.45;;;9.73;;
56373;SDS011;58212;47.034;7.376;2024-03-07T06:07:13;11.27;;;9.63;;
56373;SDS011;58212;47.034;7.376;2024-03-07T06:09:40;10.73;;;9.63;;
56373;SDS011;58212;47.034;7.376;2024-03-07T06:12:07;11.30;;;10.10;;
56373;SDS011;58212;47.034;7.376;2024-03-07T06:14:34;12.75;;;10.50;;
56373;SDS011;58212;47.034;7.376;2024-03-07T06:17:00;11.73;;;10.10;;
56373;SDS011;58212;47.034;7.376;2024-03-07T06:19:27;12.65;;;10.13;;
56373;SDS011;58212;47.034;7.376;2024-03-07T06:21:56;11.05;;;9.73;;
56373;SDS011;58212;47.034;7.376;2024-03-07T06:24:24;13.68;;;10.68;;
56373;SDS011;58212;47.034;7.376;2024-03-07T06:26:55;11.02;;;9.82;;
56373;SDS011;58212;47.034;7.376;2024-03-07T06:29:26;11.20;;;9.00;;
56373;SDS011;58212;47.034;7.376;2024-03-07T06:31:54;10.02;;;8.98;;
56373;SDS011;58212;47.034;7.376;2024-03-07T06:34:20;10.40;;;9.00;;
56373;SDS011;58212;47.034;7.376;2024-03-07T06:36:47;9.82;;;8.35;;
56373;SDS011;58212;47.034;7.376;2024-03-07T06:39:14;11.82;;;9.05;;
56373;SDS011;58212;47.034;7.376;2024-03-07T06:41:42;10.27;;;8.77;;
56373;SDS011;58212;47.034;7.376;2024-03-07T06:44:10;10.05;;;8.60;;
56373;SDS011;58212;47.034;7.376;2024-03-07T06:46:37;9.35;;;8.23;;
56373;SDS011;58212;47.034;7.376;2024-03-07T06:49:04;9.82;;;8.15;;
56373;SDS011;58212;47.034;7.376;2024-03-07T06:51:36;8.73;;;7.57;;
56373;SDS011;58212;47.034;7.376;2024-03-07T06:54:04;8.48;;;7.15;;
56373;SDS011;58212;47.034;7.376;2024-03-07T06:56:31;7.00;;;6.13;;
56373;SDS011;58212;47.034;7.376;2024-03-07T06:59:00;6.65;;;5.95;;
56373;SDS011;58212;47.034;7.376;2024-03-07T07:01:29;6.63;;;5.70;;
56373;SDS011;58212;47.034;7.376;2024-03-07T07:03:56;8.05;;;6.55;;
56373;SDS011;58212;47.034;7.376;2024-03-07T07:06:24;6.72;;;5.75;;
56373;SDS011;58212;47.034;7.376;2024-03-07T07:08:51;6.07;;;5.30;;
56373;SDS011;58212;47.034;7.376;2024-03-07T07:11:18;6.95;;;6.25;;
56373;SDS011;58212;47.034;7.376;2024-03-07T07:13:44;7.00;;;6.03;;
56373;SDS011;58212;47.034;7.376;2024-03-07T07:16:13;7.90;;;5.43;;
56373;SDS011;58212;47.034;7.376;2024-03-07T07:18:44;5.53;;;4.97;;
56373;SDS011;58212;47.034;7.376;2024-03-07T07:21:11;5.82;;;5.28;;
56373;SDS011;58212;47.034;7.376;2024-03-07T07:23:41;5.65;;;5.15;;
56373;SDS011;58212;47.034;7.376;2024-03-07T07:26:08;6.10;;;5.03;;
56373;SDS011;58212;47.034;7.376;2024-03-07T07:28:35;5.47;;;4.82;;
56373;SDS011;58212;47.034;7.376;2024-03-07T07:31:02;5.00;;;4.50;;
56373;SDS011;58212;47.034;7.376;2024-03-07T07:33:31;5.18;;;4.68;;
56373;SDS011;58212;47.034;7.376;2024-03-07T07:35:58;5.13;;;4.63;;
56373;SDS011;58212;47.034;7.376;2024-03-07T07:38:25;4.45;;;4.05;;
56373;SDS011;58212;47.034;7.376;2024-03-07T07:40:52;5.10;;;4.60;;
56373;SDS011;58212;47.034;7.376;2024-03-07T07:43:19;4.28;;;3.88;;
56373;SDS011;58212;47.034;7.376;2024-03-07T07:45:46;4.75;;;4.28;;
56373;SDS011;58212;47.034;7.376;2024-03-07T07:48:13;4.78;;;4.38;;
56373;SDS011;58212;47.034;7.376;2024-03-07T07:50:43;5.15;;;4.65;;
56373;SDS011;58212;47.034;7.376;2024-03-07T07:53:10;5.38;;;4.88;;
56373;SDS011;58212;47.034;7.376;2024-03-07T07:55:37;5.15;;;4.65;;
56373;SDS011;58212;47.034;7.376;2024-03-07T07:58:06;5.75;;;4.82;;
56373;SDS011;58212;47.034;7.376;2024-03-07T08:00:32;4.95;;;4.45;;
56373;SDS011;58212;47.034;7.376;2024-03-07T08:03:01;4.63;;;4.22;;
56373;SDS011;58212;47.034;7.376;2024-03-07T08:05:29;5.10;;;4.60;;
56373;SDS011;58212;47.034;7.376;2024-03-07T08:07:59;6.20;;;4.57;;
56373;SDS011;58212;47.034;7.376;2024-03-07T08:10:30;4.95;;;4.45;;
56373;SDS011;58212;47.034;7.376;2024-03-07T08:12:57;5.38;;;4.88;;
56373;SDS011;58212;47.034;7.376;2024-03-07T08:15:25;4.47;;;4.07;;
56373;SDS011;58212;47.034;7.376;2024-03-07T08:17:53;5.22;;;4.72;;
56373;SDS011;58212;47.034;7.376;2024-03-07T08:20:21;5.05;;;4.57;;
56373;SDS011;58212;47.034;7.376;2024-03-07T08:22:49;6.20;;;5.30;;
56373;SDS011;58212;47.034;7.376;2024-03-07T08:25:19;5.90;;;5.35;;
56373;SDS011;58212;47.034;7.376;2024-03-07T08:27:49;5.90;;;5.15;;
56373;SDS011;58212;47.034;7.376;2024-03-07T08:30:16;5.43;;;4.93;;
56373;SDS011;58212;47.034;7.376;2024-03-07T08:32:44;5.15;;;4.68;;
56373;SDS011;58212;47.034;7.376;2024-03-07T08:35:12;4.55;;;4.15;;
56373;SDS011;58212;47.034;7.376;2024-03-07T08:37:39;4.95;;;4.47;;
56373;SDS011;58212;47.034;7.376;2024-03-07T08:40:07;4.60;;;4.20;;
56373;SDS011;58212;47.034;7.376;2024-03-07T08:42:37;5.55;;;5.00;;
56373;SDS011;58212;47.034;7.376;2024-03-07T08:45:04;4.95;;;4.43;;
56373;SDS011;58212;47.034;7.376;2024-03-07T08:47:32;4.45;;;3.92;;
56373;SDS011;58212;47.034;7.376;2024-03-07T08:49:59;4.45;;;4.03;;
56373;SDS011;58212;47.034;7.376;2024-03-07T08:52:27;4.57;;;3.85;;
56373;SDS011;58212;47.034;7.376;2024-03-07T08:54:54;3.58;;;3.28;;
56373;SDS011;58212;47.034;7.376;2024-03-07T08:57:21;3.58;;;3.28;;
56373;SDS011;58212;47.034;7.376;2024-03-07T08:59:49;4.25;;;3.17;;
56373;SDS011;58212;47.034;7.376;2024-03-07T09:02:16;3.95;;;3.42;;
56373;SDS011;58212;47.034;7.376;2024-03-07T09:04:43;4.25;;;3.22;;
56373;SDS011;58212;47.034;7.376;2024-03-07T09:07:10;3.15;;;2.85;;
56373;SDS011;58212;47.034;7.376;2024-03-07T09:09:37;3.85;;;2.92;;
56373;SDS011;58212;47.034;7.376;2024-03-07T09:12:04;3.25;;;2.95;;
56373;SDS011;58212;47.034;7.376;2024-03-07T09:14:31;3.38;;;2.83;;
56373;SDS011;58212;47.034;7.376;2024-03-07T09:16:59;3.08;;;2.78;;
56373;SDS011;58212;47.034;7.376;2024-03-07T09:19:26;3.38;;;2.85;;
56373;SDS011;58212;47.034;7.376;2024-03-07T09:21:53;3.50;;;3.20;;
56373;SDS011;58212;47.034;7.376;2024-03-07T09:24:20;2.95;;;2.67;;
56373;SDS011;58212;47.034;7.376;2024-03-07T09:26:48;7.22;;;3.35;;
56373;SDS011;58212;47.034;7.376;2024-03-07T09:29:15;3.25;;;2.95;;
56373;SDS011;58212;47.034;7.376;2024-03-07T09:31:43;5.13;;;3.05;;
56373;SDS011;58212;47.034;7.376;2024-03-07T09:34:11;4.40;;;3.05;;
56373;SDS011;58212;47.034;7.376;2024-03-07T09:36:40;3.08;;;2.78;;
56373;SDS011;58212;47.034;7.376;2024-03-07T09:39:07;4.43;;;3.42;;
56373;SDS011;58212;47.034;7.376;2024-03-07T09:41:35;3.80;;;3.15;;
56373;SDS011;58212;47.034;7.376;2024-03-07T09:44:02;3.25;;;2.95;;
56373;SDS011;58212;47.034;7.376;2024-03-07T09:46:31;5.80;;;3.33;;
56373;SDS011;58212;47.034;7.376;2024-03-07T09:48:58;3.63;;;3.25;;
56373;SDS011;58212;47.034;7.376;2024-03-07T09:51:28;3.40;;;3.10;;
56373;SDS011;58212;47.034;7.376;2024-03-07T09:53:56;3.67;;;3.10;;
56373;SDS011;58212;47.034;7.376;2024-03-07T09:56:24;4.57;;;3.28;;
56373;SDS011;58212;47.034;7.376;2024-03-07T09:58:58;8.32;;;3.33;;
56373;SDS011;58212;47.034;7.376;2024-03-07T10:01:27;6.05;;;3.40;;
56373;SDS011;58212;47.034;7.376;2024-03-07T10:03:56;2.90;;;2.67;;
56373;SDS011;58212;47.034;7.376;2024-03-07T10:06:28;3.25;;;2.83;;
56373;SDS011;58212;47.034;7.376;2024-03-07T10:08:55;4.28;;;3.10;;
56373;SDS011;58212;47.034;7.376;2024-03-07T10:11:23;6.78;;;3.55;;
56373;SDS011;58212;47.034;7.376;2024-03-07T10:13:50;3.40;;;3.10;;
56373;SDS011;58212;47.034;7.376;2024-03-07T10:16:17;3.03;;;2.72;;
56373;SDS011;58212;47.034;7.376;2024-03-07T10:18:44;2.97;;;2.78;;
56373;SDS011;58212;47.034;7.376;2024-03-07T10:21:13;4.75;;;3.25;;
56373;SDS011;58212;47.034;7.376;2024-03-07T10:23:41;4.07;;;3.17;;
56373;SDS011;58212;47.034;7.376;2024-03-07T10:26:08;3.67;;;3.38;;
56373;SDS011;58212;47.034;7.376;2024-03-07T10:28:35;7.88;;;3.50;;
56373;SDS011;58212;47.034;7.376;2024-03-07T10:31:02;11.77;;;3.50;;
56373;SDS011;58212;47.034;7.376;2024-03-07T10:33:36;3.30;;;3.00;;
56373;SDS011;58212;47.034;7.376;2024-03-07T10:36:04;10.35;;;3.95;;
56373;SDS011;58212;47.034;7.376;2024-03-07T10:38:35;4.78;;;3.40;;
56373;SDS011;58212;47.034;7.376;2024-03-07T10:41:04;3.38;;;2.85;;
56373;SDS011;58212;47.034;7.376;2024-03-07T10:43:34;3.92;;;3.53;;
56373;SDS011;58212;47.034;7.376;2024-03-07T10:46:06;3.40;;;3.10;;
56373;SDS011;58212;47.034;7.376;2024-03-07T10:48:37;3.80;;;3.50;;
56373;SDS011;58212;47.034;7.376;2024-03-07T10:51:06;3.67;;;3.38;;
56373;SDS011;58212;47.034;7.376;2024-03-07T10:53:42;3.42;;;3.13;;
56373;SDS011;58212;47.034;7.376;2024-03-07T10:56:33;8.00;;;3.50;;
56373;SDS011;58212;47.034;7.376;2024-03-07T10:59:11;3.50;;;3.17;;
56373;SDS011;58212;47.034;7.376;2024-03-07T11:01:44;4.70;;;3.80;;
56373;SDS011;58212;47.034;7.376;2024-03-07T11:04:18;5.03;;;3.58;;
56373;SDS011;58212;47.034;7.376;2024-03-07T11:06:47;3.67;;;3.15;;
56373;SDS011;58212;47.034;7.376;2024-03-07T11:09:15;3.70;;;3.40;;
56373;SDS011;58212;47.034;7.376;2024-03-07T11:11:49;4.65;;;3.28;;
56373;SDS011;58212;47.034;7.376;2024-03-07T11:14:16;4.95;;;3.40;;
56373;SDS011;58212;47.034;7.376;2024-03-07T11:16:44;3.80;;;3.50;;
56373;SDS011;58212;47.034;7.376;2024-03-07T11:19:17;4.43;;;3.85;;
56373;SDS011;58212;47.034;7.376;2024-03-07T11:21:53;4.50;;;3.40;;
56373;SDS011;58212;47.034;7.376;2024-03-07T11:24:24;4.10;;;3.70;;
56373;SDS011;58212;47.034;7.376;2024-03-07T11:26:56;4.30;;;3.53;;
56373;SDS011;58212;47.034;7.376;2024-03-07T11:29:38;4.00;;;3.50;;
56373;SDS011;58212;47.034;7.376;2024-03-07T11:32:08;3.75;;;3.45;;
56373;SDS011;58212;47.034;7.376;2024-03-07T11:34:37;4.28;;;3.88;;
56373;SDS011;58212;47.034;7.376;2024-03-07T11:37:06;3.80;;;3.40;;
56373;SDS011;58212;47.034;7.376;2024-03-07T11:39:42;4.28;;;3.88;;
56373;SDS011;58212;47.034;7.376;2024-03-07T11:42:25;3.90;;;3.60;;
56373;SDS011;58212;47.034;7.376;2024-03-07T11:44:54;4.03;;;3.45;;
56373;SDS011;58212;47.034;7.376;2024-03-07T11:47:22;4.03;;;3.72;;
56373;SDS011;58212;47.034;7.376;2024-03-07T11:49:49;7.50;;;3.78;;
56373;SDS011;58212;47.034;7.376;2024-03-07T11:52:17;4.00;;;3.60;;
56373;SDS011;58212;47.034;7.376;2024-03-07T11:54:44;5.88;;;3.70;;
56373;SDS011;58212;47.034;7.376;2024-03-07T11:57:17;3.88;;;3.55;;
56373;SDS011;58212;47.034;7.376;2024-03-07T11:59:52;5.50;;;3.75;;
56373;SDS011;58212;47.034;7.376;2024-03-07T12:02:19;5.78;;;3.72;;
56373;SDS011;58212;47.034;7.376;2024-03-07T12:04:48;4.35;;;3.50;;
56373;SDS011;58212;47.034;7.376;2024-03-07T12:07:15;4.45;;;4.05;;
56373;SDS011;58212;47.034;7.376;2024-03-07T12:09:44;4.00;;;3.70;;
56373;SDS011;58212;47.034;7.376;2024-03-07T12:12:16;4.45;;;4.05;;
56373;SDS011;58212;47.034;7.376;2024-03-07T12:14:43;10.95;;;4.15;;
56373;SDS011;58212;47.034;7.376;2024-03-07T12:17:12;3.78;;;3.47;;
56373;SDS011;58212;47.034;7.376;2024-03-07T12:19:39;11.70;;;4.07;;
56373;SDS011;58212;47.034;7.376;2024-03-07T12:22:07;3.95;;;3.55;;
56373;SDS011;58212;47.034;7.376;2024-03-07T12:24:38;4.00;;;3.70;;
56373;SDS011;58212;47.034;7.376;2024-03-07T12:27:06;5.13;;;3.90;;
56373;SDS011;58212;47.034;7.376;2024-03-07T12:29:34;4.20;;;3.80;;
56373;SDS011;58212;47.034;7.376;2024-03-07T12:32:03;3.60;;;3.30;;
56373;SDS011;58212;47.034;7.376;2024-03-07T12:34:33;4.03;;;3.65;;
56373;SDS011;58212;47.034;7.376;2024-03-07T12:37:02;3.60;;;3.30;;
56373;SDS011;58212;47.034;7.376;2024-03-07T12:39:31;3.72;;;3.42;;
56373;SDS011;58212;47.034;7.376;2024-03-07T12:42:01;4.07;;;3.70;;
56373;SDS011;58212;47.034;7.376;2024-03-07T12:44:38;3.75;;;3.45;;
56373;SDS011;58212;47.034;7.376;2024-03-07T12:47:08;3.17;;;2.88;;
56373;SDS011;58212;47.034;7.376;2024-03-07T12:49:37;5.90;;;4.13;;
56373;SDS011;58212;47.034;7.376;2024-03-07T12:52:05;9.80;;;4.60;;
56373;SDS011;58212;47.034;7.376;2024-03-07T12:54:33;4.03;;;3.33;;
56373;SDS011;58212;47.034;7.376;2024-03-07T12:57:02;3.97;;;3.67;;
56373;SDS011;58212;47.034;7.376;2024-03-07T12:59:31;6.70;;;4.30;;
56373;SDS011;58212;47.034;7.376;2024-03-07T13:01:58;3.78;;;3.47;;
56373;SDS011;58212;47.034;7.376;2024-03-07T13:04:25;4.10;;;3.80;;
56373;SDS011;58212;47.034;7.376;2024-03-07T13:06:53;4.65;;;4.25;;
56373;SDS011;58212;47.034;7.376;2024-03-07T13:09:25;4.65;;;4.18;;
56373;SDS011;58212;47.034;7.376;2024-03-07T13:11:53;4.22;;;3.72;;
56373;SDS011;58212;47.034;7.376;2024-03-07T13:14:20;4.72;;;4.32;;
56373;SDS011;58212;47.034;7.376;2024-03-07T13:16:46;4.22;;;3.70;;
56373;SDS011;58212;47.034;7.376;2024-03-07T13:19:13;4.35;;;3.95;;
56373;SDS011;58212;47.034;7.376;2024-03-07T13:21:41;7.63;;;4.28;;
56373;SDS011;58212;47.034;7.376;2024-03-07T13:24:09;4.63;;;4.13;;
56373;SDS011;58212;47.034;7.376;2024-03-07T13:26:36;5.95;;;4.60;;
56373;SDS011;58212;47.034;7.376;2024-03-07T13:29:03;4.32;;;3.92;;
56373;SDS011;58212;47.034;7.376;2024-03-07T13:31:30;4.70;;;4.30;;
56373;SDS011;58212;47.034;7.376;2024-03-07T13:33:58;5.10;;;4.60;;
56373;SDS011;58212;47.034;7.376;2024-03-07T13:36:26;5.45;;;4.10;;
56373;SDS011;58212;47.034;7.376;2024-03-07T13:38:53;4.80;;;4.40;;
56373;SDS011;58212;47.034;7.376;2024-03-07T13:41:22;4.50;;;4.10;;
56373;SDS011;58212;47.034;7.376;2024-03-07T13:43:50;4.32;;;3.95;;
56373;SDS011;58212;47.034;7.376;2024-03-07T13:46:17;7.30;;;4.50;;
56373;SDS011;58212;47.034;7.376;2024-03-07T13:48:46;3.80;;;3.47;;
56373;SDS011;58212;47.034;7.376;2024-03-07T13:51:13;4.63;;;4.22;;
56373;SDS011;58212;47.034;7.376;2024-03-07T13:53:42;5.10;;;4.60;;
56373;SDS011;58212;47.034;7.376;2024-03-07T13:56:31;4.68;;;4.28;;
56373;SDS011;58212;47.034;7.376;2024-03-07T13:59:10;4.22;;;3.92;;
56373;SDS011;58212;47.034;7.376;2024-03-07T14:01:53;3.92;;;3.63;;
56373;SDS011;58212;47.034;7.376;2024-03-07T14:04:39;3.80;;;3.50;;
56373;SDS011;58212;47.034;7.376;2024-03-07T14:07:26;4.85;;;4.20;;
56373;SDS011;58212;47.034;7.376;2024-03-07T14:10:21;4.78;;;4.38;;
56373;SDS011;58212;47.034;7.376;2024-03-07T14:13:16;5.05;;;4.65;;
56373;SDS011;58212;47.034;7.376;2024-03-07T14:16:02;5.53;;;4.63;;
56373;SDS011;58212;47.034;7.376;2024-03-07T14:19:01;5.93;;;5.43;;
56373;SDS011;58212;47.034;7.376;2024-03-07T14:22:02;5.05;;;4.55;;
56373;SDS011;58212;47.034;7.376;2024-03-07T14:24:53;5.32;;;4.82;;
56373;SDS011;58212;47.034;7.376;2024-03-07T14:27:49;5.45;;;4.85;;
56373;SDS011;58212;47.034;7.376;2024-03-07T14:30:27;5.85;;;5.30;;
56373;SDS011;58212;47.034;7.376;2024-03-07T14:33:08;5.20;;;4.78;;
56373;SDS011;58212;47.034;7.376;2024-03-07T14:35:39;5.30;;;4.80;;
56373;SDS011;58212;47.034;7.376;2024-03-07T14:38:27;18.95;;;6.25;;
56373;SDS011;58212;47.034;7.376;2024-03-07T14:40:55;6.20;;;5.28;;
56373;SDS011;58212;47.034;7.376;2024-03-07T14:43:22;5.88;;;5.35;;
56373;SDS011;58212;47.034;7.376;2024-03-07T14:45:50;6.25;;;5.30;;
56373;SDS011;58212;47.034;7.376;2024-03-07T14:48:20;7.82;;;5.32;;
56373;SDS011;58212;47.034;7.376;2024-03-07T14:50:47;6.10;;;5.50;;
56373;SDS011;58212;47.034;7.376;2024-03-07T14:53:14;4.88;;;4.47;;
56373;SDS011;58212;47.034;7.376;2024-03-07T14:55:43;16.40;;;7.38;;